sensor_id;sensor_type;location;lat;lon;timestamp;temperature;humidity
4406;DHT22;2216;53.806;11.598;2023-10-19T00:00:48;7.40;78.40
4406;DHT22;2216;53.806;11.598;2023-10-19T00:03:16;7.50;78.30
4406;DHT22;2216;53.806;11.598;2023-10-19T00:05:43;7.40;78.30
4406;DHT22;2216;53.806;11.598;2023-10-19T00:08:10;7.40;78.30
4406;DHT22;2216;53.806;11.598;2023-10-19T00:10:51;7.40;78.30
4406;DHT22;2216;53.806;11.598;2023-10-19T00:13:34;7.40;78.30
4406;DHT22;2216;53.806;11.598;2023-10-19T00:16:01;7.40;78.40
4406;DHT22;2216;53.806;11.598;2023-10-19T00:18:32;7.50;78.40
4406;DHT22;2216;53.806;11.598;2023-10-19T00:21:00;7.50;78.50
4406;DHT22;2216;53.806;11.598;2023-10-19T00:23:36;7.50;78.50
4406;DHT22;2216;53.806;11.598;2023-10-19T00:26:03;7.50;78.40
4406;DHT22;2216;53.806;11.598;2023-10-19T00:28:46;7.50;78.40
4406;DHT22;2216;53.806;11.598;2023-10-19T00:31:15;7.50;78.50
4406;DHT22;2216;53.806;11.598;2023-10-19T00:33:40;7.40;78.30
4406;DHT22;2216;53.806;11.598;2023-10-19T00:36:10;7.40;78.40
4406;DHT22;2216;53.806;11.598;2023-10-19T00:38:39;7.50;78.50
4406;DHT22;2216;53.806;11.598;2023-10-19T00:41:09;7.50;78.50
4406;DHT22;2216;53.806;11.598;2023-10-19T00:43:36;7.70;78.60
4406;DHT22;2216;53.806;11.598;2023-10-19T00:46:09;7.50;78.40
4406;DHT22;2216;53.806;11.598;2023-10-19T00:48:43;7.50;78.40
4406;DHT22;2216;53.806;11.598;2023-10-19T00:51:16;7.50;78.50
4406;DHT22;2216;53.806;11.598;2023-10-19T00:53:57;7.50;78.50
4406;DHT22;2216;53.806;11.598;2023-10-19T00:56:34;7.50;78.70
4406;DHT22;2216;53.806;11.598;2023-10-19T00:59:01;7.50;78.60
4406;DHT22;2216;53.806;11.598;2023-10-19T01:01:43;7.60;78.60
4406;DHT22;2216;53.806;11.598;2023-10-19T01:04:13;7.60;78.60
4406;DHT22;2216;53.806;11.598;2023-10-19T01:06:45;7.60;78.60
4406;DHT22;2216;53.806;11.598;2023-10-19T01:09:28;7.60;78.80
4406;DHT22;2216;53.806;11.598;2023-10-19T01:11:54;7.60;78.70
4406;DHT22;2216;53.806;11.598;2023-10-19T01:14:21;7.60;78.70
4406;DHT22;2216;53.806;11.598;2023-10-19T01:16:47;7.60;78.60
4406;DHT22;2216;53.806;11.598;2023-10-19T01:19:15;7.70;78.70
4406;DHT22;2216;53.806;11.598;2023-10-19T01:21:44;7.70;78.70
4406;DHT22;2216;53.806;11.598;2023-10-19T01:24:18;7.70;78.60
4406;DHT22;2216;53.806;11.598;2023-10-19T01:26:49;7.70;78.50
4406;DHT22;2216;53.806;11.598;2023-10-19T01:29:15;7.70;78.50
4406;DHT22;2216;53.806;11.598;2023-10-19T01:31:43;7.70;78.40
4406;DHT22;2216;53.806;11.598;2023-10-19T01:34:27;7.70;78.40
4406;DHT22;2216;53.806;11.598;2023-10-19T01:36:53;7.70;78.40
4406;DHT22;2216;53.806;11.598;2023-10-19T01:39:21;7.70;78.40
4406;DHT22;2216;53.806;11.598;2023-10-19T01:41:46;7.70;78.40
4406;DHT22;2216;53.806;11.598;2023-10-19T01:44:15;7.70;78.30
4406;DHT22;2216;53.806;11.598;2023-10-19T01:46:42;7.70;78.40
4406;DHT22;2216;53.806;11.598;2023-10-19T01:49:11;7.80;78.40
4406;DHT22;2216;53.806;11.598;2023-10-19T01:51:36;7.70;78.30
4406;DHT22;2216;53.806;11.598;2023-10-19T01:54:07;7.70;78.30
4406;DHT22;2216;53.806;11.598;2023-10-19T01:56:33;7.80;78.40
4406;DHT22;2216;53.806;11.598;2023-10-19T01:59:04;7.80;78.30
4406;DHT22;2216;53.806;11.598;2023-10-19T02:01:31;7.80;78.30
4406;DHT22;2216;53.806;11.598;2023-10-19T02:04:03;7.80;78.30
4406;DHT22;2216;53.806;11.598;2023-10-19T02:06:32;7.80;78.40
4406;DHT22;2216;53.806;11.598;2023-10-19T02:09:09;7.80;78.40
4406;DHT22;2216;53.806;11.598;2023-10-19T02:11:53;7.80;78.40
4406;DHT22;2216;53.806;11.598;2023-10-19T02:14:21;7.80;78.40
4406;DHT22;2216;53.806;11.598;2023-10-19T02:16:51;7.90;78.40
4406;DHT22;2216;53.806;11.598;2023-10-19T02:19:19;7.90;78.50
4406;DHT22;2216;53.806;11.598;2023-10-19T02:21:50;7.90;78.50
4406;DHT22;2216;53.806;11.598;2023-10-19T02:24:17;7.90;78.50
4406;DHT22;2216;53.806;11.598;2023-10-19T02:26:44;7.90;78.40
4406;DHT22;2216;53.806;11.598;2023-10-19T02:29:12;7.90;78.40
4406;DHT22;2216;53.806;11.598;2023-10-19T02:31:42;8.00;78.40
4406;DHT22;2216;53.806;11.598;2023-10-19T02:34:09;8.00;78.40
4406;DHT22;2216;53.806;11.598;2023-10-19T02:36:38;8.00;78.30
4406;DHT22;2216;53.806;11.598;2023-10-19T02:39:06;8.00;78.30
4406;DHT22;2216;53.806;11.598;2023-10-19T02:41:38;8.00;78.30
4406;DHT22;2216;53.806;11.598;2023-10-19T02:44:08;8.00;78.30
4406;DHT22;2216;53.806;11.598;2023-10-19T02:46:37;8.00;78.30
4406;DHT22;2216;53.806;11.598;2023-10-19T02:49:07;8.10;78.30
4406;DHT22;2216;53.806;11.598;2023-10-19T02:51:42;8.10;78.30
4406;DHT22;2216;53.806;11.598;2023-10-19T02:54:22;8.10;78.20
4406;DHT22;2216;53.806;11.598;2023-10-19T02:56:51;8.10;78.30
4406;DHT22;2216;53.806;11.598;2023-10-19T02:59:19;8.10;78.20
4406;DHT22;2216;53.806;11.598;2023-10-19T03:01:57;8.10;78.10
4406;DHT22;2216;53.806;11.598;2023-10-19T03:04:32;8.10;78.10
4406;DHT22;2216;53.806;11.598;2023-10-19T03:07:02;8.10;78.20
4406;DHT22;2216;53.806;11.598;2023-10-19T03:09:28;8.10;78.10
4406;DHT22;2216;53.806;11.598;2023-10-19T03:11:56;8.10;78.10
4406;DHT22;2216;53.806;11.598;2023-10-19T03:14:28;8.20;78.20
4406;DHT22;2216;53.806;11.598;2023-10-19T03:16:54;8.20;78.10
4406;DHT22;2216;53.806;11.598;2023-10-19T03:19:21;8.10;78.10
4406;DHT22;2216;53.806;11.598;2023-10-19T03:21:46;8.20;78.10
4406;DHT22;2216;53.806;11.598;2023-10-19T03:24:16;8.20;78.20
4406;DHT22;2216;53.806;11.598;2023-10-19T03:27:05;8.20;78.00
4406;DHT22;2216;53.806;11.598;2023-10-19T03:29:42;8.20;78.00
4406;DHT22;2216;53.806;11.598;2023-10-19T03:32:19;8.20;78.00
4406;DHT22;2216;53.806;11.598;2023-10-19T03:34:47;8.20;78.00
4406;DHT22;2216;53.806;11.598;2023-10-19T03:37:15;8.20;78.00
4406;DHT22;2216;53.806;11.598;2023-10-19T03:39:42;8.20;78.00
4406;DHT22;2216;53.806;11.598;2023-10-19T03:42:11;8.20;78.00
4406;DHT22;2216;53.806;11.598;2023-10-19T03:44:39;8.20;78.00
4406;DHT22;2216;53.806;11.598;2023-10-19T03:47:16;8.20;78.00
4406;DHT22;2216;53.806;11.598;2023-10-19T03:49:49;8.20;78.00
4406;DHT22;2216;53.806;11.598;2023-10-19T03:52:15;8.20;78.00
4406;DHT22;2216;53.806;11.598;2023-10-19T03:54:41;8.20;78.00
4406;DHT22;2216;53.806;11.598;2023-10-19T03:57:08;8.30;78.00
4406;DHT22;2216;53.806;11.598;2023-10-19T03:59:39;8.20;77.90
4406;DHT22;2216;53.806;11.598;2023-10-19T04:02:05;8.30;78.00
4406;DHT22;2216;53.806;11.598;2023-10-19T04:04:42;8.30;78.00
4406;DHT22;2216;53.806;11.598;2023-10-19T04:07:10;8.30;77.90
4406;DHT22;2216;53.806;11.598;2023-10-19T04:10:02;8.20;77.80
4406;DHT22;2216;53.806;11.598;2023-10-19T04:12:35;8.30;77.90
4406;DHT22;2216;53.806;11.598;2023-10-19T04:15:05;8.30;77.80
4406;DHT22;2216;53.806;11.598;2023-10-19T04:17:37;8.30;77.90
4406;DHT22;2216;53.806;11.598;2023-10-19T04:20:08;8.20;77.80
4406;DHT22;2216;53.806;11.598;2023-10-19T04:22:52;8.20;77.80
4406;DHT22;2216;53.806;11.598;2023-10-19T04:25:19;8.30;77.80
4406;DHT22;2216;53.806;11.598;2023-10-19T04:27:47;8.20;77.70
4406;DHT22;2216;53.806;11.598;2023-10-19T04:30:15;8.20;77.80
4406;DHT22;2216;53.806;11.598;2023-10-19T04:32:45;8.20;77.80
4406;DHT22;2216;53.806;11.598;2023-10-19T04:35:12;8.20;77.80
4406;DHT22;2216;53.806;11.598;2023-10-19T04:37:50;8.10;77.70
4406;DHT22;2216;53.806;11.598;2023-10-19T04:40:18;8.20;77.80
4406;DHT22;2216;53.806;11.598;2023-10-19T04:42:47;8.20;77.80
4406;DHT22;2216;53.806;11.598;2023-10-19T04:45:13;8.20;77.90
4406;DHT22;2216;53.806;11.598;2023-10-19T04:47:40;8.20;77.80
4406;DHT22;2216;53.806;11.598;2023-10-19T04:50:06;8.20;77.90
4406;DHT22;2216;53.806;11.598;2023-10-19T04:52:32;8.20;77.90
4406;DHT22;2216;53.806;11.598;2023-10-19T04:54:59;8.10;77.80
4406;DHT22;2216;53.806;11.598;2023-10-19T04:57:26;8.10;77.80
4406;DHT22;2216;53.806;11.598;2023-10-19T04:59:52;8.10;77.80
4406;DHT22;2216;53.806;11.598;2023-10-19T05:02:18;8.20;77.80
4406;DHT22;2216;53.806;11.598;2023-10-19T05:04:44;8.10;77.80
4406;DHT22;2216;53.806;11.598;2023-10-19T05:07:10;8.10;77.80
4406;DHT22;2216;53.806;11.598;2023-10-19T05:09:45;8.10;77.80
4406;DHT22;2216;53.806;11.598;2023-10-19T05:12:12;8.10;77.80
4406;DHT22;2216;53.806;11.598;2023-10-19T05:14:40;8.20;77.90
4406;DHT22;2216;53.806;11.598;2023-10-19T05:17:09;8.10;77.80
4406;DHT22;2216;53.806;11.598;2023-10-19T05:19:36;8.10;77.80
4406;DHT22;2216;53.806;11.598;2023-10-19T05:22:04;8.10;77.80
4406;DHT22;2216;53.806;11.598;2023-10-19T05:24:31;8.10;78.20
4406;DHT22;2216;53.806;11.598;2023-10-19T05:26:58;8.10;77.80
4406;DHT22;2216;53.806;11.598;2023-10-19T05:29:23;8.10;77.90
4406;DHT22;2216;53.806;11.598;2023-10-19T05:31:51;8.10;77.80
4406;DHT22;2216;53.806;11.598;2023-10-19T05:34:23;8.10;77.80
4406;DHT22;2216;53.806;11.598;2023-10-19T05:36:52;8.10;77.80
4406;DHT22;2216;53.806;11.598;2023-10-19T05:39:19;8.10;77.90
4406;DHT22;2216;53.806;11.598;2023-10-19T05:41:46;8.10;77.80
4406;DHT22;2216;53.806;11.598;2023-10-19T05:44:12;8.10;77.80
4406;DHT22;2216;53.806;11.598;2023-10-19T05:46:37;8.10;77.80
4406;DHT22;2216;53.806;11.598;2023-10-19T05:49:05;8.10;77.90
4406;DHT22;2216;53.806;11.598;2023-10-19T05:51:31;8.10;78.50
4406;DHT22;2216;53.806;11.598;2023-10-19T05:53:57;8.10;77.80
4406;DHT22;2216;53.806;11.598;2023-10-19T05:56:29;8.10;77.80
4406;DHT22;2216;53.806;11.598;2023-10-19T05:58:56;8.20;77.90
4406;DHT22;2216;53.806;11.598;2023-10-19T06:01:23;8.20;77.90
4406;DHT22;2216;53.806;11.598;2023-10-19T06:03:49;8.20;77.90
4406;DHT22;2216;53.806;11.598;2023-10-19T06:06:16;8.10;77.80
4406;DHT22;2216;53.806;11.598;2023-10-19T06:08:41;8.20;77.90
4406;DHT22;2216;53.806;11.598;2023-10-19T06:11:07;8.20;77.80
4406;DHT22;2216;53.806;11.598;2023-10-19T06:13:33;8.20;77.90
4406;DHT22;2216;53.806;11.598;2023-10-19T06:15:58;8.20;77.90
4406;DHT22;2216;53.806;11.598;2023-10-19T06:18:24;8.20;77.90
4406;DHT22;2216;53.806;11.598;2023-10-19T06:20:50;8.20;77.80
4406;DHT22;2216;53.806;11.598;2023-10-19T06:23:17;8.20;77.80
4406;DHT22;2216;53.806;11.598;2023-10-19T06:25:43;8.20;77.80
4406;DHT22;2216;53.806;11.598;2023-10-19T06:28:09;8.20;77.80
4406;DHT22;2216;53.806;11.598;2023-10-19T06:30:36;8.30;77.90
4406;DHT22;2216;53.806;11.598;2023-10-19T06:33:02;8.20;77.80
4406;DHT22;2216;53.806;11.598;2023-10-19T06:35:30;8.20;77.80
4406;DHT22;2216;53.806;11.598;2023-10-19T06:38:02;8.30;77.90
4406;DHT22;2216;53.806;11.598;2023-10-19T06:40:29;8.30;77.80
4406;DHT22;2216;53.806;11.598;2023-10-19T06:42:57;8.30;78.60
4406;DHT22;2216;53.806;11.598;2023-10-19T06:45:24;8.30;77.80
4406;DHT22;2216;53.806;11.598;2023-10-19T06:47:55;8.40;77.90
4406;DHT22;2216;53.806;11.598;2023-10-19T06:50:22;8.40;78.40
4406;DHT22;2216;53.806;11.598;2023-10-19T06:52:48;8.40;78.50
4406;DHT22;2216;53.806;11.598;2023-10-19T06:55:16;8.40;77.80
4406;DHT22;2216;53.806;11.598;2023-10-19T06:57:49;8.40;77.80
4406;DHT22;2216;53.806;11.598;2023-10-19T07:00:20;8.40;77.80
4406;DHT22;2216;53.806;11.598;2023-10-19T07:02:51;8.40;77.80
4406;DHT22;2216;53.806;11.598;2023-10-19T07:05:18;8.40;77.80
4406;DHT22;2216;53.806;11.598;2023-10-19T07:07:49;8.40;77.80
4406;DHT22;2216;53.806;11.598;2023-10-19T07:10:17;8.40;77.70
4406;DHT22;2216;53.806;11.598;2023-10-19T07:12:45;8.40;77.70
4406;DHT22;2216;53.806;11.598;2023-10-19T07:15:21;8.50;77.80
4406;DHT22;2216;53.806;11.598;2023-10-19T07:17:49;8.40;77.70
4406;DHT22;2216;53.806;11.598;2023-10-19T07:20:17;8.40;77.70
4406;DHT22;2216;53.806;11.598;2023-10-19T07:22:55;8.50;77.80
4406;DHT22;2216;53.806;11.598;2023-10-19T07:25:22;8.50;77.80
4406;DHT22;2216;53.806;11.598;2023-10-19T07:27:51;8.50;77.80
4406;DHT22;2216;53.806;11.598;2023-10-19T07:30:18;8.50;77.80
4406;DHT22;2216;53.806;11.598;2023-10-19T07:32:52;8.60;77.90
4406;DHT22;2216;53.806;11.598;2023-10-19T07:35:26;8.50;77.80
4406;DHT22;2216;53.806;11.598;2023-10-19T07:37:53;8.50;77.80
4406;DHT22;2216;53.806;11.598;2023-10-19T07:40:20;8.50;77.80
4406;DHT22;2216;53.806;11.598;2023-10-19T07:42:46;8.50;77.80
4406;DHT22;2216;53.806;11.598;2023-10-19T07:45:12;8.50;78.50
4406;DHT22;2216;53.806;11.598;2023-10-19T07:47:39;8.50;77.80
4406;DHT22;2216;53.806;11.598;2023-10-19T07:50:09;8.50;77.90
4406;DHT22;2216;53.806;11.598;2023-10-19T07:52:49;8.50;77.80
4406;DHT22;2216;53.806;11.598;2023-10-19T07:55:17;8.50;77.90
4406;DHT22;2216;53.806;11.598;2023-10-19T07:57:44;8.50;77.90
4406;DHT22;2216;53.806;11.598;2023-10-19T08:00:11;8.50;77.90
4406;DHT22;2216;53.806;11.598;2023-10-19T08:02:40;8.60;78.10
4406;DHT22;2216;53.806;11.598;2023-10-19T08:05:17;8.60;78.00
4406;DHT22;2216;53.806;11.598;2023-10-19T08:07:46;8.60;78.00
4406;DHT22;2216;53.806;11.598;2023-10-19T08:10:19;8.60;78.00
4406;DHT22;2216;53.806;11.598;2023-10-19T08:12:46;8.60;78.00
4406;DHT22;2216;53.806;11.598;2023-10-19T08:15:14;8.60;78.10
4406;DHT22;2216;53.806;11.598;2023-10-19T08:17:42;8.60;78.10
4406;DHT22;2216;53.806;11.598;2023-10-19T08:20:10;8.60;78.10
4406;DHT22;2216;53.806;11.598;2023-10-19T08:22:52;8.70;78.20
4406;DHT22;2216;53.806;11.598;2023-10-19T08:25:19;8.60;78.10
4406;DHT22;2216;53.806;11.598;2023-10-19T08:27:46;8.70;78.20
4406;DHT22;2216;53.806;11.598;2023-10-19T08:30:20;8.70;78.90
4406;DHT22;2216;53.806;11.598;2023-10-19T08:32:46;8.70;78.20
4406;DHT22;2216;53.806;11.598;2023-10-19T08:35:16;8.70;78.10
4406;DHT22;2216;53.806;11.598;2023-10-19T08:37:55;8.70;78.10
4406;DHT22;2216;53.806;11.598;2023-10-19T08:40:24;8.70;78.10
4406;DHT22;2216;53.806;11.598;2023-10-19T08:42:52;8.70;78.10
4406;DHT22;2216;53.806;11.598;2023-10-19T08:45:19;8.70;78.10
4406;DHT22;2216;53.806;11.598;2023-10-19T08:47:55;8.70;78.00
4406;DHT22;2216;53.806;11.598;2023-10-19T08:50:28;8.70;78.10
4406;DHT22;2216;53.806;11.598;2023-10-19T08:53:00;8.70;78.00
4406;DHT22;2216;53.806;11.598;2023-10-19T08:55:30;8.80;78.10
4406;DHT22;2216;53.806;11.598;2023-10-19T08:57:57;8.80;78.10
4406;DHT22;2216;53.806;11.598;2023-10-19T09:00:26;8.80;78.10
4406;DHT22;2216;53.806;11.598;2023-10-19T09:02:53;8.70;78.10
4406;DHT22;2216;53.806;11.598;2023-10-19T09:05:20;8.90;78.20
4406;DHT22;2216;53.806;11.598;2023-10-19T09:07:50;8.90;78.20
4406;DHT22;2216;53.806;11.598;2023-10-19T09:10:21;8.90;78.20
4406;DHT22;2216;53.806;11.598;2023-10-19T09:12:59;8.90;78.20
4406;DHT22;2216;53.806;11.598;2023-10-19T09:15:29;9.00;78.20
4406;DHT22;2216;53.806;11.598;2023-10-19T09:18:11;9.00;78.30
4406;DHT22;2216;53.806;11.598;2023-10-19T09:20:39;9.10;78.30
4406;DHT22;2216;53.806;11.598;2023-10-19T09:23:05;9.10;78.20
4406;DHT22;2216;53.806;11.598;2023-10-19T09:25:32;9.10;78.20
4406;DHT22;2216;53.806;11.598;2023-10-19T09:28:00;9.10;78.20
4406;DHT22;2216;53.806;11.598;2023-10-19T09:30:29;9.20;78.20
4406;DHT22;2216;53.806;11.598;2023-10-19T09:32:56;9.20;78.10
4406;DHT22;2216;53.806;11.598;2023-10-19T09:35:24;9.20;78.10
4406;DHT22;2216;53.806;11.598;2023-10-19T09:37:55;9.20;78.00
4406;DHT22;2216;53.806;11.598;2023-10-19T09:40:22;9.20;78.00
4406;DHT22;2216;53.806;11.598;2023-10-19T09:42:53;9.20;78.00
4406;DHT22;2216;53.806;11.598;2023-10-19T09:45:19;9.30;78.00
4406;DHT22;2216;53.806;11.598;2023-10-19T09:47:54;9.30;78.70
4406;DHT22;2216;53.806;11.598;2023-10-19T09:50:21;9.30;77.90
4406;DHT22;2216;53.806;11.598;2023-10-19T09:52:48;9.30;77.80
4406;DHT22;2216;53.806;11.598;2023-10-19T09:58:36;9.30;77.90
4406;DHT22;2216;53.806;11.598;2023-10-19T10:01:06;9.30;77.80
4406;DHT22;2216;53.806;11.598;2023-10-19T10:06:30;9.30;77.80
4406;DHT22;2216;53.806;11.598;2023-10-19T10:09:20;9.30;77.80
4406;DHT22;2216;53.806;11.598;2023-10-19T10:11:49;9.40;78.00
4406;DHT22;2216;53.806;11.598;2023-10-19T10:14:25;9.40;78.00
4406;DHT22;2216;53.806;11.598;2023-10-19T10:17:04;9.40;77.90
4406;DHT22;2216;53.806;11.598;2023-10-19T10:19:30;9.40;77.80
4406;DHT22;2216;53.806;11.598;2023-10-19T10:22:09;9.40;77.90
4406;DHT22;2216;53.806;11.598;2023-10-19T10:24:43;9.40;77.80
4406;DHT22;2216;53.806;11.598;2023-10-19T10:27:09;9.40;77.80
4406;DHT22;2216;53.806;11.598;2023-10-19T10:29:54;9.60;77.80
4406;DHT22;2216;53.806;11.598;2023-10-19T10:32:46;9.50;77.80
4406;DHT22;2216;53.806;11.598;2023-10-19T10:38:03;9.50;77.70
4406;DHT22;2216;53.806;11.598;2023-10-19T10:40:44;9.50;77.70
4406;DHT22;2216;53.806;11.598;2023-10-19T10:43:11;9.50;78.50
4406;DHT22;2216;53.806;11.598;2023-10-19T10:45:37;9.50;77.80
4406;DHT22;2216;53.806;11.598;2023-10-19T10:48:03;9.50;77.90
4406;DHT22;2216;53.806;11.598;2023-10-19T10:50:29;9.50;77.80
4406;DHT22;2216;53.806;11.598;2023-10-19T10:52:55;9.50;77.90
4406;DHT22;2216;53.806;11.598;2023-10-19T10:55:23;9.50;78.00
4406;DHT22;2216;53.806;11.598;2023-10-19T10:57:52;9.50;78.00
4406;DHT22;2216;53.806;11.598;2023-10-19T11:00:19;9.50;78.10
4406;DHT22;2216;53.806;11.598;2023-10-19T11:02:47;9.50;78.00
4406;DHT22;2216;53.806;11.598;2023-10-19T11:05:15;9.40;78.00
4406;DHT22;2216;53.806;11.598;2023-10-19T11:08:05;9.50;78.20
4406;DHT22;2216;53.806;11.598;2023-10-19T11:10:38;9.40;78.30
4406;DHT22;2216;53.806;11.598;2023-10-19T11:13:07;9.50;78.40
4406;DHT22;2216;53.806;11.598;2023-10-19T11:15:35;9.40;78.50
4406;DHT22;2216;53.806;11.598;2023-10-19T11:18:07;9.50;78.50
4406;DHT22;2216;53.806;11.598;2023-10-19T11:20:33;9.50;78.50
4406;DHT22;2216;53.806;11.598;2023-10-19T11:22:59;9.50;78.50
4406;DHT22;2216;53.806;11.598;2023-10-19T11:25:29;9.50;78.50
4406;DHT22;2216;53.806;11.598;2023-10-19T11:27:59;9.50;78.60
4406;DHT22;2216;53.806;11.598;2023-10-19T11:30:31;9.50;78.70
4406;DHT22;2216;53.806;11.598;2023-10-19T11:32:58;9.60;78.70
4406;DHT22;2216;53.806;11.598;2023-10-19T11:35:28;9.60;78.70
4406;DHT22;2216;53.806;11.598;2023-10-19T11:37:56;9.60;78.60
4406;DHT22;2216;53.806;11.598;2023-10-19T11:40:24;9.60;78.60
4406;DHT22;2216;53.806;11.598;2023-10-19T11:42:51;9.70;78.70
4406;DHT22;2216;53.806;11.598;2023-10-19T11:45:18;9.70;78.70
4406;DHT22;2216;53.806;11.598;2023-10-19T11:47:45;9.70;78.80
4406;DHT22;2216;53.806;11.598;2023-10-19T11:50:11;9.70;78.70
4406;DHT22;2216;53.806;11.598;2023-10-19T11:52:45;9.80;78.80
4406;DHT22;2216;53.806;11.598;2023-10-19T11:55:12;9.80;78.70
4406;DHT22;2216;53.806;11.598;2023-10-19T11:57:44;9.80;78.80
4406;DHT22;2216;53.806;11.598;2023-10-19T12:00:13;9.90;78.80
4406;DHT22;2216;53.806;11.598;2023-10-19T12:02:49;9.90;78.70
4406;DHT22;2216;53.806;11.598;2023-10-19T12:05:15;9.90;78.70
4406;DHT22;2216;53.806;11.598;2023-10-19T12:07:41;9.90;78.50
4406;DHT22;2216;53.806;11.598;2023-10-19T12:10:08;10.00;78.60
4406;DHT22;2216;53.806;11.598;2023-10-19T12:12:38;9.90;78.50
4406;DHT22;2216;53.806;11.598;2023-10-19T12:15:05;9.90;78.60
4406;DHT22;2216;53.806;11.598;2023-10-19T12:17:32;9.90;78.60
4406;DHT22;2216;53.806;11.598;2023-10-19T12:19:58;9.90;78.60
4406;DHT22;2216;53.806;11.598;2023-10-19T12:22:24;9.90;78.60
4406;DHT22;2216;53.806;11.598;2023-10-19T12:24:53;9.90;78.60
4406;DHT22;2216;53.806;11.598;2023-10-19T12:27:20;9.90;78.60
4406;DHT22;2216;53.806;11.598;2023-10-19T12:29:46;9.90;78.60
4406;DHT22;2216;53.806;11.598;2023-10-19T12:32:12;9.80;78.50
4406;DHT22;2216;53.806;11.598;2023-10-19T12:34:40;9.90;78.70
4406;DHT22;2216;53.806;11.598;2023-10-19T12:37:06;9.90;78.70
4406;DHT22;2216;53.806;11.598;2023-10-19T12:39:35;9.90;78.90
4406;DHT22;2216;53.806;11.598;2023-10-19T12:42:01;9.90;78.90
4406;DHT22;2216;53.806;11.598;2023-10-19T12:44:27;9.90;78.90
4406;DHT22;2216;53.806;11.598;2023-10-19T12:46:55;9.90;79.00
4406;DHT22;2216;53.806;11.598;2023-10-19T12:49:22;10.00;78.90
4406;DHT22;2216;53.806;11.598;2023-10-19T12:51:51;10.00;78.90
4406;DHT22;2216;53.806;11.598;2023-10-19T12:54:18;10.00;78.80
4406;DHT22;2216;53.806;11.598;2023-10-19T12:56:43;10.00;78.70
4406;DHT22;2216;53.806;11.598;2023-10-19T12:59:09;10.00;78.70
4406;DHT22;2216;53.806;11.598;2023-10-19T13:01:35;10.00;78.70
4406;DHT22;2216;53.806;11.598;2023-10-19T13:04:01;10.00;78.80
4406;DHT22;2216;53.806;11.598;2023-10-19T13:06:41;10.00;78.80
4406;DHT22;2216;53.806;11.598;2023-10-19T13:09:07;10.00;78.80
4406;DHT22;2216;53.806;11.598;2023-10-19T13:11:34;10.00;78.80
4406;DHT22;2216;53.806;11.598;2023-10-19T13:14:00;10.00;78.80
4406;DHT22;2216;53.806;11.598;2023-10-19T13:16:26;10.00;78.80
4406;DHT22;2216;53.806;11.598;2023-10-19T13:18:53;10.00;78.70
4406;DHT22;2216;53.806;11.598;2023-10-19T13:21:19;10.00;78.80
4406;DHT22;2216;53.806;11.598;2023-10-19T13:23:53;10.00;78.80
4406;DHT22;2216;53.806;11.598;2023-10-19T13:26:19;10.00;78.90
4406;DHT22;2216;53.806;11.598;2023-10-19T13:28:45;10.00;79.10
4406;DHT22;2216;53.806;11.598;2023-10-19T13:31:11;10.00;79.10
4406;DHT22;2216;53.806;11.598;2023-10-19T13:33:40;10.00;79.00
4406;DHT22;2216;53.806;11.598;2023-10-19T13:36:07;10.00;79.10
4406;DHT22;2216;53.806;11.598;2023-10-19T13:38:33;10.00;79.00
4406;DHT22;2216;53.806;11.598;2023-10-19T13:40:59;9.90;78.90
4406;DHT22;2216;53.806;11.598;2023-10-19T13:43:28;10.00;79.00
4406;DHT22;2216;53.806;11.598;2023-10-19T13:45:54;9.90;79.20
4406;DHT22;2216;53.806;11.598;2023-10-19T13:48:20;9.90;79.10
4406;DHT22;2216;53.806;11.598;2023-10-19T13:50:47;9.90;79.30
4406;DHT22;2216;53.806;11.598;2023-10-19T13:53:14;10.00;79.50
4406;DHT22;2216;53.806;11.598;2023-10-19T13:55:41;9.90;79.20
4406;DHT22;2216;53.806;11.598;2023-10-19T13:58:07;9.90;79.10
4406;DHT22;2216;53.806;11.598;2023-10-19T14:00:33;9.80;79.20
4406;DHT22;2216;53.806;11.598;2023-10-19T14:02:59;9.80;79.30
4406;DHT22;2216;53.806;11.598;2023-10-19T14:05:26;9.80;79.20
4406;DHT22;2216;53.806;11.598;2023-10-19T14:07:53;9.80;79.30
4406;DHT22;2216;53.806;11.598;2023-10-19T14:10:19;9.80;79.20
4406;DHT22;2216;53.806;11.598;2023-10-19T14:12:47;9.80;79.20
4406;DHT22;2216;53.806;11.598;2023-10-19T14:15:15;9.80;79.40
4406;DHT22;2216;53.806;11.598;2023-10-19T14:17:43;9.80;79.40
4406;DHT22;2216;53.806;11.598;2023-10-19T14:20:10;9.80;79.40
4406;DHT22;2216;53.806;11.598;2023-10-19T14:22:43;9.80;79.40
4406;DHT22;2216;53.806;11.598;2023-10-19T14:25:13;9.80;79.40
4406;DHT22;2216;53.806;11.598;2023-10-19T14:27:43;9.80;79.30
4406;DHT22;2216;53.806;11.598;2023-10-19T14:30:22;9.80;79.40
4406;DHT22;2216;53.806;11.598;2023-10-19T14:32:49;9.80;79.50
4406;DHT22;2216;53.806;11.598;2023-10-19T14:35:17;9.80;79.40
4406;DHT22;2216;53.806;11.598;2023-10-19T14:37:47;9.80;79.40
4406;DHT22;2216;53.806;11.598;2023-10-19T14:40:15;9.80;79.40
4406;DHT22;2216;53.806;11.598;2023-10-19T14:42:43;9.80;80.00
4406;DHT22;2216;53.806;11.598;2023-10-19T14:45:17;9.70;79.10
4406;DHT22;2216;53.806;11.598;2023-10-19T14:47:47;9.80;79.50
4406;DHT22;2216;53.806;11.598;2023-10-19T14:50:14;9.70;79.30
4406;DHT22;2216;53.806;11.598;2023-10-19T14:52:41;9.70;79.20
4406;DHT22;2216;53.806;11.598;2023-10-19T14:55:09;9.70;79.20
4406;DHT22;2216;53.806;11.598;2023-10-19T14:57:36;9.70;79.00
4406;DHT22;2216;53.806;11.598;2023-10-19T15:00:07;9.60;79.20
4406;DHT22;2216;53.806;11.598;2023-10-19T15:02:45;9.60;79.20
4406;DHT22;2216;53.806;11.598;2023-10-19T15:05:14;9.60;79.00
4406;DHT22;2216;53.806;11.598;2023-10-19T15:07:42;9.60;79.40
4406;DHT22;2216;53.806;11.598;2023-10-19T15:10:10;9.50;79.60
4406;DHT22;2216;53.806;11.598;2023-10-19T15:12:40;9.50;79.30
4406;DHT22;2216;53.806;11.598;2023-10-19T15:15:09;9.50;79.40
4406;DHT22;2216;53.806;11.598;2023-10-19T15:17:45;9.40;79.40
4406;DHT22;2216;53.806;11.598;2023-10-19T15:20:13;9.40;79.50
4406;DHT22;2216;53.806;11.598;2023-10-19T15:22:40;9.40;79.60
4406;DHT22;2216;53.806;11.598;2023-10-19T15:25:07;9.40;79.80
4406;DHT22;2216;53.806;11.598;2023-10-19T15:27:34;9.30;79.80
4406;DHT22;2216;53.806;11.598;2023-10-19T15:30:00;9.30;79.70
4406;DHT22;2216;53.806;11.598;2023-10-19T15:32:26;9.30;79.90
4406;DHT22;2216;53.806;11.598;2023-10-19T15:34:52;9.30;79.90
4406;DHT22;2216;53.806;11.598;2023-10-19T15:37:19;9.30;79.90
4406;DHT22;2216;53.806;11.598;2023-10-19T15:39:44;9.20;79.90
4406;DHT22;2216;53.806;11.598;2023-10-19T15:42:11;9.20;80.00
4406;DHT22;2216;53.806;11.598;2023-10-19T15:44:37;9.30;80.30
4406;DHT22;2216;53.806;11.598;2023-10-19T15:47:04;9.10;80.10
4406;DHT22;2216;53.806;11.598;2023-10-19T15:49:36;9.10;80.20
4406;DHT22;2216;53.806;11.598;2023-10-19T15:52:03;9.10;80.00
4406;DHT22;2216;53.806;11.598;2023-10-19T15:54:29;9.10;80.00
4406;DHT22;2216;53.806;11.598;2023-10-19T15:56:55;9.10;80.20
4406;DHT22;2216;53.806;11.598;2023-10-19T15:59:20;9.10;80.20
4406;DHT22;2216;53.806;11.598;2023-10-19T16:01:46;9.00;80.30
4406;DHT22;2216;53.806;11.598;2023-10-19T16:04:12;9.00;80.10
4406;DHT22;2216;53.806;11.598;2023-10-19T16:06:38;9.00;80.10
4406;DHT22;2216;53.806;11.598;2023-10-19T16:09:03;9.00;80.10
4406;DHT22;2216;53.806;11.598;2023-10-19T16:11:29;9.00;80.40
4406;DHT22;2216;53.806;11.598;2023-10-19T16:13:56;9.00;80.20
4406;DHT22;2216;53.806;11.598;2023-10-19T16:16:21;8.90;80.50
4406;DHT22;2216;53.806;11.598;2023-10-19T16:18:47;8.90;80.40
4406;DHT22;2216;53.806;11.598;2023-10-19T16:21:13;8.90;80.30